sensor_id;sensor_type;location;lat;lon;timestamp;temperature;humidity
44223;DHT22;29895;48.804;9.386;2024-03-02T00:01:26;4.40;99.90
44223;DHT22;29895;48.804;9.386;2024-03-02T00:03:52;4.40;99.90
44223;DHT22;29895;48.804;9.386;2024-03-02T00:06:20;4.50;99.90
44223;DHT22;29895;48.804;9.386;2024-03-02T00:08:47;4.50;99.90
44223;DHT22;29895;48.804;9.386;2024-03-02T00:11:12;4.50;99.90
44223;DHT22;29895;48.804;9.386;2024-03-02T00:13:40;4.50;99.90
44223;DHT22;29895;48.804;9.386;2024-03-02T00:16:06;4.50;99.90
44223;DHT22;29895;48.804;9.386;2024-03-02T00:18:35;4.50;99.90
44223;DHT22;29895;48.804;9.386;2024-03-02T00:21:02;4.50;99.90
44223;DHT22;29895;48.804;9.386;2024-03-02T00:23:30;4.50;99.90
44223;DHT22;29895;48.804;9.386;2024-03-02T00:25:57;4.50;99.90
44223;DHT22;29895;48.804;9.386;2024-03-02T00:28:26;4.40;99.90
44223;DHT22;29895;48.804;9.386;2024-03-02T00:31:12;4.50;99.90
44223;DHT22;29895;48.804;9.386;2024-03-02T00:33:43;4.50;99.90
44223;DHT22;29895;48.804;9.386;2024-03-02T00:36:10;4.40;99.90
44223;DHT22;29895;48.804;9.386;2024-03-02T00:38:50;4.30;99.90
44223;DHT22;29895;48.804;9.386;2024-03-02T00:41:24;4.30;99.90
44223;DHT22;29895;48.804;9.386;2024-03-02T00:43:59;4.30;99.90
44223;DHT22;29895;48.804;9.386;2024-03-02T00:46:32;4.20;99.90
44223;DHT22;29895;48.804;9.386;2024-03-02T00:49:00;4.30;99.90
44223;DHT22;29895;48.804;9.386;2024-03-02T00:51:27;4.30;99.90
44223;DHT22;29895;48.804;9.386;2024-03-02T00:53:54;4.30;99.90
44223;DHT22;29895;48.804;9.386;2024-03-02T00:56:23;4.40;99.90
44223;DHT22;29895;48.804;9.386;2024-03-02T00:58:50;4.40;99.90
44223;DHT22;29895;48.804;9.386;2024-03-02T01:01:16;4.40;99.90
44223;DHT22;29895;48.804;9.386;2024-03-02T01:03:42;4.40;99.90
44223;DHT22;29895;48.804;9.386;2024-03-02T01:06:08;4.40;99.90
44223;DHT22;29895;48.804;9.386;2024-03-02T01:11:04;4.30;99.90
44223;DHT22;29895;48.804;9.386;2024-03-02T01:13:30;4.20;99.90
44223;DHT22;29895;48.804;9.386;2024-03-02T01:15:56;4.30;99.90
44223;DHT22;29895;48.804;9.386;2024-03-02T01:18:22;4.40;99.90
44223;DHT22;29895;48.804;9.386;2024-03-02T01:20:49;4.40;99.90
44223;DHT22;29895;48.804;9.386;2024-03-02T01:23:18;4.40;99.90
44223;DHT22;29895;48.804;9.386;2024-03-02T01:25:45;4.50;99.90
44223;DHT22;29895;48.804;9.386;2024-03-02T01:28:11;4.50;99.90
44223;DHT22;29895;48.804;9.386;2024-03-02T01:30:37;4.40;99.90
44223;DHT22;29895;48.804;9.386;2024-03-02T01:33:03;4.40;99.90
44223;DHT22;29895;48.804;9.386;2024-03-02T01:35:31;4.40;99.90
44223;DHT22;29895;48.804;9.386;2024-03-02T01:37:57;4.30;99.90
44223;DHT22;29895;48.804;9.386;2024-03-02T01:40:23;4.30;99.90
44223;DHT22;29895;48.804;9.386;2024-03-02T01:42:52;4.30;99.90
44223;DHT22;29895;48.804;9.386;2024-03-02T01:45:19;4.30;99.90
44223;DHT22;29895;48.804;9.386;2024-03-02T01:47:45;4.30;99.90
44223;DHT22;29895;48.804;9.386;2024-03-02T01:50:14;4.30;99.90
44223;DHT22;29895;48.804;9.386;2024-03-02T01:52:40;4.30;99.90
44223;DHT22;29895;48.804;9.386;2024-03-02T01:55:06;4.20;99.90
44223;DHT22;29895;48.804;9.386;2024-03-02T01:57:33;4.10;99.90
44223;DHT22;29895;48.804;9.386;2024-03-02T02:00:00;4.10;99.90
44223;DHT22;29895;48.804;9.386;2024-03-02T02:02:26;4.10;99.90
44223;DHT22;29895;48.804;9.386;2024-03-02T02:04:51;4.00;99.90
44223;DHT22;29895;48.804;9.386;2024-03-02T02:07:17;3.90;99.90
44223;DHT22;29895;48.804;9.386;2024-03-02T02:09:43;3.90;99.90
44223;DHT22;29895;48.804;9.386;2024-03-02T02:12:12;3.80;99.90
44223;DHT22;29895;48.804;9.386;2024-03-02T02:14:38;3.90;99.90
44223;DHT22;29895;48.804;9.386;2024-03-02T02:17:05;3.80;99.90
44223;DHT22;29895;48.804;9.386;2024-03-02T02:19:31;3.80;99.90
44223;DHT22;29895;48.804;9.386;2024-03-02T02:21:56;3.70;99.90
44223;DHT22;29895;48.804;9.386;2024-03-02T02:24:22;3.70;99.90
44223;DHT22;29895;48.804;9.386;2024-03-02T02:26:48;3.70;99.90
44223;DHT22;29895;48.804;9.386;2024-03-02T02:29:13;3.70;99.90
44223;DHT22;29895;48.804;9.386;2024-03-02T02:31:40;3.60;99.90
44223;DHT22;29895;48.804;9.386;2024-03-02T02:34:06;3.60;99.90
44223;DHT22;29895;48.804;9.386;2024-03-02T02:36:33;3.60;99.90
44223;DHT22;29895;48.804;9.386;2024-03-02T02:39:02;3.70;99.90
44223;DHT22;29895;48.804;9.386;2024-03-02T02:41:29;3.70;99.90
44223;DHT22;29895;48.804;9.386;2024-03-02T02:43:55;3.70;99.90
44223;DHT22;29895;48.804;9.386;2024-03-02T02:46:21;3.60;99.90
44223;DHT22;29895;48.804;9.386;2024-03-02T02:48:46;3.60;99.90
44223;DHT22;29895;48.804;9.386;2024-03-02T02:51:12;3.50;99.90
44223;DHT22;29895;48.804;9.386;2024-03-02T02:53:37;3.50;99.90
44223;DHT22;29895;48.804;9.386;2024-03-02T02:56:06;3.50;99.90
44223;DHT22;29895;48.804;9.386;2024-03-02T02:58:32;3.50;99.90
44223;DHT22;29895;48.804;9.386;2024-03-02T03:00:57;3.50;99.90
44223;DHT22;29895;48.804;9.386;2024-03-02T03:03:23;3.60;99.90
44223;DHT22;29895;48.804;9.386;2024-03-02T03:05:49;3.50;99.90
44223;DHT22;29895;48.804;9.386;2024-03-02T03:08:14;3.60;99.90
44223;DHT22;29895;48.804;9.386;2024-03-02T03:10:41;3.60;99.90
44223;DHT22;29895;48.804;9.386;2024-03-02T03:13:08;3.60;99.90
44223;DHT22;29895;48.804;9.386;2024-03-02T03:15:35;3.60;99.90
44223;DHT22;29895;48.804;9.386;2024-03-02T03:18:02;3.70;99.90
44223;DHT22;29895;48.804;9.386;2024-03-02T03:20:29;3.70;99.90
44223;DHT22;29895;48.804;9.386;2024-03-02T03:22:56;3.70;99.90
44223;DHT22;29895;48.804;9.386;2024-03-02T03:25:22;3.60;99.90
44223;DHT22;29895;48.804;9.386;2024-03-02T03:27:48;3.60;99.90
44223;DHT22;29895;48.804;9.386;2024-03-02T03:30:14;3.50;99.90
44223;DHT22;29895;48.804;9.386;2024-03-02T03:32:39;3.50;99.90
44223;DHT22;29895;48.804;9.386;2024-03-02T03:35:06;3.40;99.90
44223;DHT22;29895;48.804;9.386;2024-03-02T03:37:32;3.40;99.90
44223;DHT22;29895;48.804;9.386;2024-03-02T03:40:04;3.40;99.90
44223;DHT22;29895;48.804;9.386;2024-03-02T03:42:36;3.30;99.90
44223;DHT22;29895;48.804;9.386;2024-03-02T03:45:02;3.30;99.90
44223;DHT22;29895;48.804;9.386;2024-03-02T03:47:28;3.20;99.90
44223;DHT22;29895;48.804;9.386;2024-03-02T03:49:53;3.10;99.90
44223;DHT22;29895;48.804;9.386;2024-03-02T03:52:19;3.00;99.90
44223;DHT22;29895;48.804;9.386;2024-03-02T03:54:46;3.00;99.90
44223;DHT22;29895;48.804;9.386;2024-03-02T03:57:12;3.00;99.90
44223;DHT22;29895;48.804;9.386;2024-03-02T03:59:37;3.00;99.90
44223;DHT22;29895;48.804;9.386;2024-03-02T04:02:03;3.00;99.90
44223;DHT22;29895;48.804;9.386;2024-03-02T04:04:29;3.10;99.90
44223;DHT22;29895;48.804;9.386;2024-03-02T04:06:55;3.10;99.90
44223;DHT22;29895;48.804;9.386;2024-03-02T04:09:21;3.10;99.90
44223;DHT22;29895;48.804;9.386;2024-03-02T04:11:46;3.10;99.90
44223;DHT22;29895;48.804;9.386;2024-03-02T04:14:12;3.00;99.90
44223;DHT22;29895;48.804;9.386;2024-03-02T04:16:38;3.00;99.90
44223;DHT22;29895;48.804;9.386;2024-03-02T04:19:04;3.00;99.90
44223;DHT22;29895;48.804;9.386;2024-03-02T04:21:30;2.90;99.90
44223;DHT22;29895;48.804;9.386;2024-03-02T04:23:56;2.90;99.90
44223;DHT22;29895;48.804;9.386;2024-03-02T04:26:24;2.90;99.90
44223;DHT22;29895;48.804;9.386;2024-03-02T04:28:51;2.80;99.90
44223;DHT22;29895;48.804;9.386;2024-03-02T04:31:17;2.80;99.90
44223;DHT22;29895;48.804;9.386;2024-03-02T04:33:42;2.70;99.90
44223;DHT22;29895;48.804;9.386;2024-03-02T04:36:08;2.70;99.90
44223;DHT22;29895;48.804;9.386;2024-03-02T04:38:38;2.70;99.90
44223;DHT22;29895;48.804;9.386;2024-03-02T04:41:06;2.80;99.90
44223;DHT22;29895;48.804;9.386;2024-03-02T04:43:33;2.70;99.90
44223;DHT22;29895;48.804;9.386;2024-03-02T04:45:59;2.80;99.90
44223;DHT22;29895;48.804;9.386;2024-03-02T04:48:24;2.70;99.90
44223;DHT22;29895;48.804;9.386;2024-03-02T04:50:50;2.70;99.90
44223;DHT22;29895;48.804;9.386;2024-03-02T04:53:16;2.60;99.90
44223;DHT22;29895;48.804;9.386;2024-03-02T04:55:42;2.60;99.90
44223;DHT22;29895;48.804;9.386;2024-03-02T04:58:07;2.60;99.90
44223;DHT22;29895;48.804;9.386;2024-03-02T05:00:34;2.60;99.90
44223;DHT22;29895;48.804;9.386;2024-03-02T05:02:59;2.60;99.90
44223;DHT22;29895;48.804;9.386;2024-03-02T05:05:25;2.60;99.90
44223;DHT22;29895;48.804;9.386;2024-03-02T05:07:52;2.50;99.90
44223;DHT22;29895;48.804;9.386;2024-03-02T05:10:17;2.50;99.90
44223;DHT22;29895;48.804;9.386;2024-03-02T05:12:43;2.50;99.90
44223;DHT22;29895;48.804;9.386;2024-03-02T05:15:13;2.60;99.90
44223;DHT22;29895;48.804;9.386;2024-03-02T05:17:40;2.60;99.90
44223;DHT22;29895;48.804;9.386;2024-03-02T05:20:06;2.60;99.90
44223;DHT22;29895;48.804;9.386;2024-03-02T05:22:36;2.50;99.90
44223;DHT22;29895;48.804;9.386;2024-03-02T05:25:05;2.40;99.90
44223;DHT22;29895;48.804;9.386;2024-03-02T05:27:31;2.30;99.90
44223;DHT22;29895;48.804;9.386;2024-03-02T05:30:00;2.20;99.90
44223;DHT22;29895;48.804;9.386;2024-03-02T05:32:26;2.20;99.90
44223;DHT22;29895;48.804;9.386;2024-03-02T05:34:52;2.20;99.90
44223;DHT22;29895;48.804;9.386;2024-03-02T05:37:18;2.20;99.90
44223;DHT22;29895;48.804;9.386;2024-03-02T05:39:44;2.10;99.90
44223;DHT22;29895;48.804;9.386;2024-03-02T05:42:09;2.20;99.90
44223;DHT22;29895;48.804;9.386;2024-03-02T05:44:36;2.30;99.90
44223;DHT22;29895;48.804;9.386;2024-03-02T05:47:02;2.30;99.90
44223;DHT22;29895;48.804;9.386;2024-03-02T05:49:28;2.30;99.90
44223;DHT22;29895;48.804;9.386;2024-03-02T05:51:54;2.30;99.90
44223;DHT22;29895;48.804;9.386;2024-03-02T05:54:19;2.30;99.90
44223;DHT22;29895;48.804;9.386;2024-03-02T05:56:45;2.40;99.90
44223;DHT22;29895;48.804;9.386;2024-03-02T05:59:10;2.40;99.90
44223;DHT22;29895;48.804;9.386;2024-03-02T06:01:40;2.40;99.90
44223;DHT22;29895;48.804;9.386;2024-03-02T06:04:06;2.40;99.90
44223;DHT22;29895;48.804;9.386;2024-03-02T06:06:32;2.40;99.90
44223;DHT22;29895;48.804;9.386;2024-03-02T06:09:00;2.40;99.90
44223;DHT22;29895;48.804;9.386;2024-03-02T06:11:25;2.40;99.90
44223;DHT22;29895;48.804;9.386;2024-03-02T06:13:51;2.40;99.90
44223;DHT22;29895;48.804;9.386;2024-03-02T06:16:16;2.50;99.90
44223;DHT22;29895;48.804;9.386;2024-03-02T06:18:42;2.50;99.90
44223;DHT22;29895;48.804;9.386;2024-03-02T06:21:08;2.40;99.90
44223;DHT22;29895;48.804;9.386;2024-03-02T06:23:33;2.30;99.90
44223;DHT22;29895;48.804;9.386;2024-03-02T06:26:00;2.30;99.90
44223;DHT22;29895;48.804;9.386;2024-03-02T06:28:26;2.30;99.90
44223;DHT22;29895;48.804;9.386;2024-03-02T06:30:52;2.30;99.90
44223;DHT22;29895;48.804;9.386;2024-03-02T06:33:18;2.20;99.90
44223;DHT22;29895;48.804;9.386;2024-03-02T06:35:43;2.20;99.90
44223;DHT22;29895;48.804;9.386;2024-03-02T06:38:09;2.30;99.90
44223;DHT22;29895;48.804;9.386;2024-03-02T06:40:35;2.30;99.90
44223;DHT22;29895;48.804;9.386;2024-03-02T06:43:03;2.30;99.90
44223;DHT22;29895;48.804;9.386;2024-03-02T06:45:28;2.30;99.90
44223;DHT22;29895;48.804;9.386;2024-03-02T06:47:56;2.40;99.90
44223;DHT22;29895;48.804;9.386;2024-03-02T06:50:22;2.40;99.90
44223;DHT22;29895;48.804;9.386;2024-03-02T06:52:47;2.50;99.90
44223;DHT22;29895;48.804;9.386;2024-03-02T06:55:13;2.50;99.90
44223;DHT22;29895;48.804;9.386;2024-03-02T06:57:38;2.60;99.90
44223;DHT22;29895;48.804;9.386;2024-03-02T07:00:04;2.60;99.90
44223;DHT22;29895;48.804;9.386;2024-03-02T07:02:31;2.60;99.90
44223;DHT22;29895;48.804;9.386;2024-03-02T07:04:57;2.70;99.90
44223;DHT22;29895;48.804;9.386;2024-03-02T07:07:23;2.70;99.90
44223;DHT22;29895;48.804;9.386;2024-03-02T07:09:49;2.80;99.90
44223;DHT22;29895;48.804;9.386;2024-03-02T07:12:14;2.90;99.90
44223;DHT22;29895;48.804;9.386;2024-03-02T07:14:40;2.90;99.90
44223;DHT22;29895;48.804;9.386;2024-03-02T07:17:21;3.00;99.90
44223;DHT22;29895;48.804;9.386;2024-03-02T07:19:46;3.20;99.90
44223;DHT22;29895;48.804;9.386;2024-03-02T07:22:12;3.30;99.90
44223;DHT22;29895;48.804;9.386;2024-03-02T07:24:42;3.40;99.90
44223;DHT22;29895;48.804;9.386;2024-03-02T07:27:12;3.60;99.90
44223;DHT22;29895;48.804;9.386;2024-03-02T07:29:38;3.90;99.90
44223;DHT22;29895;48.804;9.386;2024-03-02T07:32:04;4.10;99.90
44223;DHT22;29895;48.804;9.386;2024-03-02T07:34:30;4.30;99.90
44223;DHT22;29895;48.804;9.386;2024-03-02T07:36:56;4.40;99.90
44223;DHT22;29895;48.804;9.386;2024-03-02T07:39:22;4.60;99.90
44223;DHT22;29895;48.804;9.386;2024-03-02T07:41:48;4.70;99.90
44223;DHT22;29895;48.804;9.386;2024-03-02T07:44:14;4.90;99.90
44223;DHT22;29895;48.804;9.386;2024-03-02T07:46:43;4.90;99.90
44223;DHT22;29895;48.804;9.386;2024-03-02T07:49:09;5.20;99.90
44223;DHT22;29895;48.804;9.386;2024-03-02T07:51:35;5.50;99.90
44223;DHT22;29895;48.804;9.386;2024-03-02T07:54:01;5.90;99.90
44223;DHT22;29895;48.804;9.386;2024-03-02T07:56:27;6.20;99.90
44223;DHT22;29895;48.804;9.386;2024-03-02T07:58:54;6.40;99.90
44223;DHT22;29895;48.804;9.386;2024-03-02T08:01:20;6.80;99.90
44223;DHT22;29895;48.804;9.386;2024-03-02T08:03:45;7.30;99.90
44223;DHT22;29895;48.804;9.386;2024-03-02T08:06:14;7.60;99.90
44223;DHT22;29895;48.804;9.386;2024-03-02T08:08:40;7.70;99.90
44223;DHT22;29895;48.804;9.386;2024-03-02T08:11:06;7.70;99.90
44223;DHT22;29895;48.804;9.386;2024-03-02T08:13:32;7.60;99.90
44223;DHT22;29895;48.804;9.386;2024-03-02T08:15:57;7.60;99.90
44223;DHT22;29895;48.804;9.386;2024-03-02T08:18:24;7.80;99.90
44223;DHT22;29895;48.804;9.386;2024-03-02T08:20:49;7.90;99.90
44223;DHT22;29895;48.804;9.386;2024-03-02T08:23:15;8.10;99.90
44223;DHT22;29895;48.804;9.386;2024-03-02T08:25:42;8.20;99.90
44223;DHT22;29895;48.804;9.386;2024-03-02T08:28:07;8.10;99.90
44223;DHT22;29895;48.804;9.386;2024-03-02T08:30:33;8.10;99.90
44223;DHT22;29895;48.804;9.386;2024-03-02T08:32:59;8.20;99.90
44223;DHT22;29895;48.804;9.386;2024-03-02T08:35:26;8.20;99.90
44223;DHT22;29895;48.804;9.386;2024-03-02T08:37:51;8.10;99.90
44223;DHT22;29895;48.804;9.386;2024-03-02T08:40:17;8.10;99.90
44223;DHT22;29895;48.804;9.386;2024-03-02T08:42:43;8.20;99.90
44223;DHT22;29895;48.804;9.386;2024-03-02T08:45:09;8.40;99.90
44223;DHT22;29895;48.804;9.386;2024-03-02T08:47:35;8.60;99.90
44223;DHT22;29895;48.804;9.386;2024-03-02T08:50:00;8.60;99.90
44223;DHT22;29895;48.804;9.386;2024-03-02T08:52:26;8.80;99.90
44223;DHT22;29895;48.804;9.386;2024-03-02T08:54:52;8.90;99.90
44223;DHT22;29895;48.804;9.386;2024-03-02T08:57:18;8.90;99.90
44223;DHT22;29895;48.804;9.386;2024-03-02T08:59:44;8.90;99.90
44223;DHT22;29895;48.804;9.386;2024-03-02T09:02:10;9.10;99.90
44223;DHT22;29895;48.804;9.386;2024-03-02T09:04:36;9.10;99.90
44223;DHT22;29895;48.804;9.386;2024-03-02T09:07:01;9.20;99.90
44223;DHT22;29895;48.804;9.386;2024-03-02T09:09:27;9.30;99.90
44223;DHT22;29895;48.804;9.386;2024-03-02T09:11:53;9.40;99.90
44223;DHT22;29895;48.804;9.386;2024-03-02T09:14:23;9.80;99.90
44223;DHT22;29895;48.804;9.386;2024-03-02T09:16:49;10.00;99.90
44223;DHT22;29895;48.804;9.386;2024-03-02T09:19:14;10.20;99.90
44223;DHT22;29895;48.804;9.386;2024-03-02T09:21:42;10.30;99.90
44223;DHT22;29895;48.804;9.386;2024-03-02T09:24:07;10.50;99.90
44223;DHT22;29895;48.804;9.386;2024-03-02T09:26:33;10.60;99.90
44223;DHT22;29895;48.804;9.386;2024-03-02T09:28:58;10.60;99.90
44223;DHT22;29895;48.804;9.386;2024-03-02T09:31:24;10.60;99.90
44223;DHT22;29895;48.804;9.386;2024-03-02T09:33:50;10.80;99.90
44223;DHT22;29895;48.804;9.386;2024-03-02T09:36:20;11.10;99.90
44223;DHT22;29895;48.804;9.386;2024-03-02T09:38:45;11.50;99.90
44223;DHT22;29895;48.804;9.386;2024-03-02T09:41:12;11.80;99.90
44223;DHT22;29895;48.804;9.386;2024-03-02T09:43:38;12.00;99.90
44223;DHT22;29895;48.804;9.386;2024-03-02T09:46:03;12.10;99.90
44223;DHT22;29895;48.804;9.386;2024-03-02T09:48:29;12.00;99.90
44223;DHT22;29895;48.804;9.386;2024-03-02T09:50:56;12.00;99.90
44223;DHT22;29895;48.804;9.386;2024-03-02T09:53:23;11.90;99.90
44223;DHT22;29895;48.804;9.386;2024-03-02T09:55:49;12.00;99.90
44223;DHT22;29895;48.804;9.386;2024-03-02T09:58:14;11.80;99.90
44223;DHT22;29895;48.804;9.386;2024-03-02T10:00:40;12.10;99.90
44223;DHT22;29895;48.804;9.386;2024-03-02T10:03:12;12.30;99.90
44223;DHT22;29895;48.804;9.386;2024-03-02T10:05:38;12.40;99.90
44223;DHT22;29895;48.804;9.386;2024-03-02T10:08:04;12.30;99.90
44223;DHT22;29895;48.804;9.386;2024-03-02T10:10:37;12.30;99.90
44223;DHT22;29895;48.804;9.386;2024-03-02T10:13:06;12.30;99.90
44223;DHT22;29895;48.804;9.386;2024-03-02T10:15:32;12.40;99.90
44223;DHT22;29895;48.804;9.386;2024-03-02T10:17:58;12.60;99.90
44223;DHT22;29895;48.804;9.386;2024-03-02T10:20:24;12.80;99.90
44223;DHT22;29895;48.804;9.386;2024-03-02T10:22:50;12.90;99.90
44223;DHT22;29895;48.804;9.386;2024-03-02T10:25:29;12.80;99.90
44223;DHT22;29895;48.804;9.386;2024-03-02T10:28:00;12.60;99.90
44223;DHT22;29895;48.804;9.386;2024-03-02T10:30:27;12.70;99.90
44223;DHT22;29895;48.804;9.386;2024-03-02T10:32:55;13.00;99.90
44223;DHT22;29895;48.804;9.386;2024-03-02T10:35:22;12.90;99.90
44223;DHT22;29895;48.804;9.386;2024-03-02T10:37:52;13.20;99.90
44223;DHT22;29895;48.804;9.386;2024-03-02T10:40:18;13.50;99.90
44223;DHT22;29895;48.804;9.386;2024-03-02T10:42:47;13.40;99.90
44223;DHT22;29895;48.804;9.386;2024-03-02T10:45:15;13.30;99.90
44223;DHT22;29895;48.804;9.386;2024-03-02T10:47:45;13.20;99.90
44223;DHT22;29895;48.804;9.386;2024-03-02T10:50:12;13.00;99.90
44223;DHT22;29895;48.804;9.386;2024-03-02T10:52:38;12.70;99.90
44223;DHT22;29895;48.804;9.386;2024-03-02T10:55:08;12.70;99.90
44223;DHT22;29895;48.804;9.386;2024-03-02T11:00:06;12.70;99.90
44223;DHT22;29895;48.804;9.386;2024-03-02T11:02:35;12.70;99.90
44223;DHT22;29895;48.804;9.386;2024-03-02T11:05:04;12.80;99.90
44223;DHT22;29895;48.804;9.386;2024-03-02T11:07:33;13.00;99.90
44223;DHT22;29895;48.804;9.386;2024-03-02T11:10:01;13.20;99.90
44223;DHT22;29895;48.804;9.386;2024-03-02T11:12:38;13.20;99.90
44223;DHT22;29895;48.804;9.386;2024-03-02T11:15:10;13.40;99.90
44223;DHT22;29895;48.804;9.386;2024-03-02T11:17:38;13.60;99.90
44223;DHT22;29895;48.804;9.386;2024-03-02T11:20:06;13.70;99.90
44223;DHT22;29895;48.804;9.386;2024-03-02T11:22:36;13.50;99.90
44223;DHT22;29895;48.804;9.386;2024-03-02T11:25:02;13.20;99.90
44223;DHT22;29895;48.804;9.386;2024-03-02T11:27:59;13.10;99.90
44223;DHT22;29895;48.804;9.386;2024-03-02T11:32:57;13.50;99.90
44223;DHT22;29895;48.804;9.386;2024-03-02T11:35:27;13.60;99.90
44223;DHT22;29895;48.804;9.386;2024-03-02T11:37:56;13.70;99.90
44223;DHT22;29895;48.804;9.386;2024-03-02T11:40:28;13.60;99.90
44223;DHT22;29895;48.804;9.386;2024-03-02T11:42:53;13.80;99.90
44223;DHT22;29895;48.804;9.386;2024-03-02T11:45:28;13.90;99.90
44223;DHT22;29895;48.804;9.386;2024-03-02T11:47:56;14.30;99.90
44223;DHT22;29895;48.804;9.386;2024-03-02T11:50:40;14.60;99.90
44223;DHT22;29895;48.804;9.386;2024-03-02T11:53:07;14.60;99.90
44223;DHT22;29895;48.804;9.386;2024-03-02T11:55:35;14.50;99.90
44223;DHT22;29895;48.804;9.386;2024-03-02T11:58:03;14.50;99.90
44223;DHT22;29895;48.804;9.386;2024-03-02T12:00:29;14.40;99.90
44223;DHT22;29895;48.804;9.386;2024-03-02T12:03:08;14.30;99.90
44223;DHT22;29895;48.804;9.386;2024-03-02T12:05:35;14.50;99.90
44223;DHT22;29895;48.804;9.386;2024-03-02T12:08:03;14.70;99.90
44223;DHT22;29895;48.804;9.386;2024-03-02T12:10:30;14.70;99.90
44223;DHT22;29895;48.804;9.386;2024-03-02T12:13:03;14.50;99.90
44223;DHT22;29895;48.804;9.386;2024-03-02T12:15:36;14.40;99.90
44223;DHT22;29895;48.804;9.386;2024-03-02T12:18:08;14.70;99.90
44223;DHT22;29895;48.804;9.386;2024-03-02T12:20:34;14.80;99.90
44223;DHT22;29895;48.804;9.386;2024-03-02T12:23:02;15.00;99.50
44223;DHT22;29895;48.804;9.386;2024-03-02T12:25:28;15.30;99.90
44223;DHT22;29895;48.804;9.386;2024-03-02T12:27:56;15.30;99.90
44223;DHT22;29895;48.804;9.386;2024-03-02T12:30:23;15.20;99.90
44223;DHT22;29895;48.804;9.386;2024-03-02T12:32:49;15.20;99.90
44223;DHT22;29895;48.804;9.386;2024-03-02T12:35:15;15.20;99.90
44223;DHT22;29895;48.804;9.386;2024-03-02T12:37:49;15.20;99.90
44223;DHT22;29895;48.804;9.386;2024-03-02T12:40:16;15.30;99.90
44223;DHT22;29895;48.804;9.386;2024-03-02T12:42:44;15.20;99.90
44223;DHT22;29895;48.804;9.386;2024-03-02T12:45:10;15.30;99.90
44223;DHT22;29895;48.804;9.386;2024-03-02T12:47:37;15.40;99.90
44223;DHT22;29895;48.804;9.386;2024-03-02T12:50:04;15.10;99.90
44223;DHT22;29895;48.804;9.386;2024-03-02T12:52:30;15.20;99.90
44223;DHT22;29895;48.804;9.386;2024-03-02T12:55:01;15.40;99.90
44223;DHT22;29895;48.804;9.386;2024-03-02T12:57:29;15.40;99.90
44223;DHT22;29895;48.804;9.386;2024-03-02T13:00:13;15.10;99.90
44223;DHT22;29895;48.804;9.386;2024-03-02T13:02:42;15.10;99.90
44223;DHT22;29895;48.804;9.386;2024-03-02T13:05:09;15.10;99.90
44223;DHT22;29895;48.804;9.386;2024-03-02T13:07:37;15.10;99.80
44223;DHT22;29895;48.804;9.386;2024-03-02T13:10:03;15.20;99.90
44223;DHT22;29895;48.804;9.386;2024-03-02T13:12:30;15.30;99.30
44223;DHT22;29895;48.804;9.386;2024-03-02T13:14:58;15.20;99.10
44223;DHT22;29895;48.804;9.386;2024-03-02T13:17:24;15.10;99.30
44223;DHT22;29895;48.804;9.386;2024-03-02T13:20:00;15.10;99.40
44223;DHT22;29895;48.804;9.386;2024-03-02T13:22:26;15.20;98.50
44223;DHT22;29895;48.804;9.386;2024-03-02T13:24:53;15.20;98.10
44223;DHT22;29895;48.804;9.386;2024-03-02T13:27:20;15.30;98.10
44223;DHT22;29895;48.804;9.386;2024-03-02T13:29:46;15.50;98.10
44223;DHT22;29895;48.804;9.386;2024-03-02T13:32:16;15.60;97.70
44223;DHT22;29895;48.804;9.386;2024-03-02T13:34:42;15.60;97.60
44223;DHT22;29895;48.804;9.386;2024-03-02T13:37:08;15.60;97.70
44223;DHT22;29895;48.804;9.386;2024-03-02T13:39:35;15.60;97.10
44223;DHT22;29895;48.804;9.386;2024-03-02T13:42:09;15.60;96.90
44223;DHT22;29895;48.804;9.386;2024-03-02T13:44:36;15.50;96.50
44223;DHT22;29895;48.804;9.386;2024-03-02T13:47:03;15.30;96.50
44223;DHT22;29895;48.804;9.386;2024-03-02T13:49:29;15.40;96.30
44223;DHT22;29895;48.804;9.386;2024-03-02T13:52:06;15.40;96.10
44223;DHT22;29895;48.804;9.386;2024-03-02T13:54:46;15.30;96.00
44223;DHT22;29895;48.804;9.386;2024-03-02T13:57:12;15.40;96.00
44223;DHT22;29895;48.804;9.386;2024-03-02T13:59:39;15.30;95.70
44223;DHT22;29895;48.804;9.386;2024-03-02T14:02:06;15.40;95.40
44223;DHT22;29895;48.804;9.386;2024-03-02T14:04:35;15.40;95.90
44223;DHT22;29895;48.804;9.386;2024-03-02T14:07:01;15.50;95.70
44223;DHT22;29895;48.804;9.386;2024-03-02T14:09:27;15.50;95.40
44223;DHT22;29895;48.804;9.386;2024-03-02T14:11:54;15.50;95.10
44223;DHT22;29895;48.804;9.386;2024-03-02T14:14:20;15.50;95.30
44223;DHT22;29895;48.804;9.386;2024-03-02T14:16:46;15.60;94.90
44223;DHT22;29895;48.804;9.386;2024-03-02T14:19:12;15.50;94.90
44223;DHT22;29895;48.804;9.386;2024-03-02T14:21:41;15.50;93.80
44223;DHT22;29895;48.804;9.386;2024-03-02T14:24:06;15.50;94.00
44223;DHT22;29895;48.804;9.386;2024-03-02T14:26:33;15.40;94.00
44223;DHT22;29895;48.804;9.386;2024-03-02T14:28:59;15.40;94.20
44223;DHT22;29895;48.804;9.386;2024-03-02T14:31:27;15.40;93.00
44223;DHT22;29895;48.804;9.386;2024-03-02T14:33:53;15.40;93.30
44223;DHT22;29895;48.804;9.386;2024-03-02T14:36:19;15.40;93.20
44223;DHT22;29895;48.804;9.386;2024-03-02T14:38:45;15.40;93.80
44223;DHT22;29895;48.804;9.386;2024-03-02T14:41:11;15.30;93.20
44223;DHT22;29895;48.804;9.386;2024-03-02T14:43:37;15.30;93.80
44223;DHT22;29895;48.804;9.386;2024-03-02T14:46:03;15.30;93.30
44223;DHT22;29895;48.804;9.386;2024-03-02T14:48:29;15.30;93.10
44223;DHT22;29895;48.804;9.386;2024-03-02T14:50:55;15.30;93.00
44223;DHT22;29895;48.804;9.386;2024-03-02T14:53:21;15.30;93.50
44223;DHT22;29895;48.804;9.386;2024-03-02T14:55:47;15.30;93.70
44223;DHT22;29895;48.804;9.386;2024-03-02T14:58:12;15.40;93.40
44223;DHT22;29895;48.804;9.386;2024-03-02T15:00:38;15.40;92.80
44223;DHT22;29895;48.804;9.386;2024-03-02T15:03:04;15.30;92.80
44223;DHT22;29895;48.804;9.386;2024-03-02T15:05:31;15.20;93.20
44223;DHT22;29895;48.804;9.386;2024-03-02T15:07:57;15.20;93.80
44223;DHT22;29895;48.804;9.386;2024-03-02T15:10:25;15.10;94.30
44223;DHT22;29895;48.804;9.386;2024-03-02T15:12:50;15.10;94.90
44223;DHT22;29895;48.804;9.386;2024-03-02T15:15:16;15.10;95.10
44223;DHT22;29895;48.804;9.386;2024-03-02T15:17:42;15.10;95.00
44223;DHT22;29895;48.804;9.386;2024-03-02T15:20:08;15.00;94.80
44223;DHT22;29895;48.804;9.386;2024-03-02T15:22:34;14.90;94.80
44223;DHT22;29895;48.804;9.386;2024-03-02T15:24:59;14.90;94.10
44223;DHT22;29895;48.804;9.386;2024-03-02T15:27:25;14.80;94.50
44223;DHT22;29895;48.804;9.386;2024-03-02T15:29:53;14.70;94.40
44223;DHT22;29895;48.804;9.386;2024-03-02T15:32:19;14.70;94.70
44223;DHT22;29895;48.804;9.386;2024-03-02T15:34:45;14.60;95.70
44223;DHT22;29895;48.804;9.386;2024-03-02T15:37:11;14.60;96.60
44223;DHT22;29895;48.804;9.386;2024-03-02T15:39:37;14.50;97.30
44223;DHT22;29895;48.804;9.386;2024-03-02T15:42:03;14.40;98.00
44223;DHT22;29895;48.804;9.386;2024-03-02T15:44:31;14.40;98.50
44223;DHT22;29895;48.804;9.386;2024-03-02T15:46:58;14.30;99.20